Monroe, MI

5:42 AM EDT on June 24, 2017 (GMT -0400)
Custer

Weather History for KTTF - April, 2013

Change the Weather History Date:

Saturday, April 27, 2013

  Actual Average Record
Temperature  
Mean Temperature 50 °F -  
Max Temperature 66 °F 64 °F 89 °F (1990)
Min Temperature 35 °F 42 °F 29 °F (1931)
Degree Days  
Heating Degree Days 14    
Moisture  
Dew Point 38 °F    
Average Humidity 62    
Maximum Humidity 100    
Minimum Humidity 32    
Precipitation  
Precipitation 0.00 in - - ()
Sea Level Pressure  
Sea Level Pressure 30.26 in    
Wind  
Wind Speed 3 mph (SE)    
Max Wind Speed 14 mph    
Max Gust Speed 17 mph    
Visibility 8 miles    
Events      
Averages and records for this station are not official NWS values.
T = Trace of Precipitation, MM = Missing Value Source: NWS Daily Summary

Daily Weather History Graph

Daily Weather History Graph

Search for Another Location

Airport or City:

Trip Planner

Search our weather history database for the weather conditions in past years. The results will help you decide how hot, cold, wet, or windy it might be!

Date:

Astronomy

Apr. 27, 2013 Rise Set
Actual Time 6:34 AM EDT 8:28 PM EDT
Civil Twilight 6:04 AM EDT 8:58 PM EDT
Nautical Twilight 5:28 AM EDT 9:35 PM EDT
Astronomical Twilight 4:48 AM EDT 10:14 PM EDT
Moon 10:58 PM EDT (4/27) 7:51 AM EDT (4/27)
Length of Visible Light 14h 53m
Length of Day
13h 53m
Waning Gibbous, 95% of the Moon is Illuminated
Apr 27
Waning Gibbous
May 2
Last Quarter
May 9
New
May 18
First Quarter
May 25
Full

Hourly Weather History & Observations

Time (EDT) Temp. Dew Point Humidity Pressure Visibility Wind Dir Wind Speed Gust Speed Precip Events Conditions
12:13 AM 44.6 °F 41.0 °F 87% 30.37 in 10.0 mi Calm Calm - N/A   Clear
12:33 AM 46.4 °F 41.0 °F 81% 30.36 in 10.0 mi Calm Calm - N/A   Clear
12:53 AM 44.6 °F 41.0 °F 87% 30.35 in 10.0 mi Calm Calm - N/A   Clear
1:14 AM 44.6 °F 41.0 °F 87% 30.35 in 10.0 mi Calm Calm - N/A   Clear
1:34 AM 44.6 °F 41.0 °F 87% 30.35 in 10.0 mi Calm Calm - N/A   Clear
1:54 AM 44.6 °F 39.2 °F 81% 30.35 in 10.0 mi Calm Calm - N/A   Clear
2:14 AM 44.6 °F 41.0 °F 87% 30.34 in 10.0 mi Calm Calm - N/A   Clear
2:34 AM 42.8 °F 39.2 °F 87% 30.34 in 7.0 mi Calm Calm - N/A   Clear
2:54 AM 42.8 °F 39.2 °F 87% 30.34 in 7.0 mi Calm Calm - N/A   Clear
3:14 AM 42.8 °F 39.2 °F 87% 30.34 in 7.0 mi Calm Calm - N/A   Clear
3:34 AM 41.0 °F 39.2 °F 93% 30.33 in 5.0 mi Calm Calm - N/A   Clear
3:54 AM 41.0 °F 39.2 °F 93% 30.33 in 5.0 mi Calm Calm - N/A   Clear
4:14 AM 39.2 °F 39.2 °F 100% 30.32 in 5.0 mi Calm Calm - N/A   Clear
4:35 AM 39.2 °F 37.4 °F 93% 30.33 in 0.8 mi Calm Calm - N/A   Mist
4:55 AM 39.2 °F 37.4 °F 93% 30.32 in 4.0 mi Calm Calm - N/A   Clear
5:15 AM 37.4 °F 37.4 °F 100% 30.33 in 1.8 mi Calm Calm - N/A   Mist
5:35 AM 37.4 °F 37.4 °F 100% 30.32 in 2.5 mi Calm Calm - N/A   Clear
5:55 AM 37.4 °F 37.4 °F 100% 30.32 in 1.8 mi Calm Calm - N/A   Mist
6:15 AM 37.4 °F 37.4 °F 100% 30.32 in 2.0 mi Calm Calm - N/A   Clear
6:35 AM 35.6 °F 35.6 °F 100% 30.31 in 3.0 mi Calm Calm - N/A   Clear
6:55 AM 37.4 °F 37.4 °F 100% 30.32 in 1.5 mi Calm Calm - N/A   Mist
7:15 AM 37.4 °F 37.4 °F 100% 30.33 in 1.8 mi Calm Calm - N/A   Mist
7:36 AM 39.2 °F 37.4 °F 93% 30.33 in 1.5 mi Calm Calm - N/A   Mist
7:56 AM 42.8 °F 41.0 °F 93% 30.34 in 2.0 mi Calm Calm - N/A   Clear
8:16 AM 44.6 °F 44.6 °F 100% 30.34 in 5.0 mi Calm Calm - N/A   Clear
8:36 AM 50.0 °F 44.6 °F 82% 30.34 in 7.0 mi South 3.5 mph - N/A   Clear
8:56 AM 51.8 °F 42.8 °F 71% 30.34 in 10.0 mi South 3.5 mph - N/A   Clear
9:16 AM 53.6 °F 41.0 °F 62% 30.33 in 10.0 mi SSW 3.5 mph - N/A   Clear
9:36 AM 55.4 °F 39.2 °F 54% 30.32 in 10.0 mi South 3.5 mph - N/A   Clear
9:56 AM 57.2 °F 39.2 °F 51% 30.32 in 10.0 mi SSE 4.6 mph - N/A   Clear
10:11 AM 59.0 °F 39.2 °F 48% 30.31 in 10.0 mi South 4.6 mph - N/A   Clear
10:31 AM 60.8 °F 37.4 °F 42% 30.31 in 10.0 mi South 6.9 mph - N/A   Clear
10:52 AM 60.8 °F 37.4 °F 42% 30.31 in 10.0 mi SSE 8.1 mph - N/A   Clear
11:12 AM 60.8 °F 37.4 °F 42% 30.31 in 10.0 mi South 5.8 mph - N/A   Clear
11:32 AM 62.6 °F 37.4 °F 39% 30.30 in 10.0 mi South 8.1 mph - N/A   Clear
11:52 AM 62.6 °F 37.4 °F 39% 30.29 in 10.0 mi South 6.9 mph - N/A   Clear
12:12 PM 62.6 °F 37.4 °F 39% 30.29 in 10.0 mi South 8.1 mph - N/A   Clear
12:32 PM 62.6 °F 35.6 °F 37% 30.28 in 10.0 mi SE 8.1 mph - N/A   Clear
12:52 PM 62.6 °F 35.6 °F 37% 30.27 in 10.0 mi SE 9.2 mph - N/A   Clear
1:12 PM 64.4 °F 37.4 °F 37% 30.26 in 10.0 mi SE 6.9 mph - N/A   Clear
1:32 PM 64.4 °F 37.4 °F 37% 30.26 in 10.0 mi ESE 6.9 mph - N/A   Clear
1:52 PM 64.4 °F 37.4 °F 37% 30.26 in 10.0 mi ESE 8.1 mph - N/A   Clear
2:13 PM 64.4 °F 37.4 °F 37% 30.25 in 10.0 mi SE 9.2 mph - N/A   Clear
2:33 PM 64.4 °F 39.2 °F 40% 30.24 in 10.0 mi SE 6.9 mph - N/A   Clear
2:53 PM 64.4 °F 37.4 °F 37% 30.24 in 10.0 mi East 6.9 mph - N/A   Clear
3:13 PM 64.4 °F 37.4 °F 37% 30.24 in 10.0 mi East 6.9 mph - N/A   Clear
3:33 PM 64.4 °F 37.4 °F 37% 30.23 in 10.0 mi East 6.9 mph - N/A   Clear
3:53 PM 64.4 °F 35.6 °F 34% 30.22 in 10.0 mi ESE 9.2 mph - N/A   Clear
4:13 PM 64.4 °F 35.6 °F 34% 30.20 in 10.0 mi East 8.1 mph - N/A   Clear
4:33 PM 66.2 °F 35.6 °F 32% 30.20 in 10.0 mi East 8.1 mph - N/A   Clear
4:53 PM 64.4 °F 35.6 °F 34% 30.19 in 10.0 mi ESE 9.2 mph - N/A   Clear
5:14 PM 64.4 °F 33.8 °F 32% 30.19 in 10.0 mi East 10.4 mph - N/A   Clear
5:34 PM 62.6 °F 33.8 °F 34% 30.18 in 10.0 mi East 9.2 mph - N/A   Clear
5:54 PM 62.6 °F 33.8 °F 34% 30.18 in 10.0 mi East 8.1 mph - N/A   Clear
6:14 PM 62.6 °F 33.8 °F 34% 30.17 in 10.0 mi ESE 9.2 mph - N/A   Clear
6:34 PM 62.6 °F 33.8 °F 34% 30.17 in 10.0 mi East 10.4 mph - N/A   Clear
6:54 PM 60.8 °F 33.8 °F 36% 30.16 in 10.0 mi ESE 13.8 mph 17.3 mph N/A   Clear
7:34 PM 59.0 °F 33.8 °F 39% 30.15 in 10.0 mi East 11.5 mph - N/A   Clear
7:54 PM 57.2 °F 33.8 °F 41% 30.15 in 10.0 mi ESE 10.4 mph - N/A   Clear
8:14 PM 57.2 °F 35.6 °F 44% 30.15 in 10.0 mi East 8.1 mph - N/A   Clear
8:35 PM 55.4 °F 35.6 °F 47% 30.15 in 10.0 mi ESE 6.9 mph - N/A   Clear
8:55 PM 53.6 °F 35.6 °F 51% 30.14 in 10.0 mi ESE 5.8 mph - N/A   Clear
9:15 PM 53.6 °F 37.4 °F 54% 30.14 in 10.0 mi ESE 5.8 mph - N/A   Clear
9:35 PM 53.6 °F 37.4 °F 54% 30.14 in 10.0 mi ESE 5.8 mph - N/A   Clear
9:55 PM 53.6 °F 37.4 °F 54% 30.14 in 10.0 mi ESE 6.9 mph - N/A   Clear
10:15 PM 51.8 °F 37.4 °F 58% 30.14 in 10.0 mi East 5.8 mph - N/A   Clear
10:35 PM 51.8 °F 37.4 °F 58% 30.13 in 10.0 mi East 6.9 mph - N/A   Clear
10:55 PM 51.8 °F 37.4 °F 58% 30.13 in 10.0 mi East 6.9 mph - N/A   Clear
11:15 PM 51.8 °F 37.4 °F 58% 30.11 in 10.0 mi East 6.9 mph - N/A   Clear
11:36 PM 51.8 °F 37.4 °F 58% 30.10 in 10.0 mi East 8.1 mph - N/A   Clear
11:56 PM 50.0 °F 37.4 °F 62% 30.09 in 10.0 mi East 5.8 mph - N/A   Clear